Terminal Aerodrome Forecast
Issued by NWS

Home | Current Version | Previous Version | Text Only | Print | Product List | Glossary On
Versions: 1 2 3 4 5 6 7 8 9 10 11 12 13 14 15 16 17 18 19 20 21 22 23 24 25 26 27 28 29 30
000
FTUS46 KPQR 240634 AAA
TAFONP
TAF AMD
KONP 240634Z 2407/2506 00000KT P6SM SKC
     FM240800 00000KT 3SM BR SKC
     FM241000 00000KT 2SM BR BKN004
     FM241200 00000KT 1/2SM FG VV002
     FM241500 34005KT 3SM BR SCT004
     FM241700 36008KT P6SM SKC
     FM242000 34013G21KT P6SM SKC=

USA.gov is the U.S. government's official web portal to all federal, state and local government web resources and services.